createdAt,value
2018-12-12T00:01:05.422Z,85.22
2018-12-12T00:02:35.357Z,85.36
2018-12-12T00:04:05.749Z,86.54
2018-12-12T00:05:35.692Z,85.84
2018-12-12T00:07:05.980Z,86.31
2018-12-12T00:08:36.130Z,85.53
2018-12-12T00:10:08.413Z,85.44
2018-12-12T00:11:38.482Z,85.32
2018-12-12T00:13:08.527Z,85.33
2018-12-12T00:14:38.480Z,85.52
2018-12-12T00:16:08.453Z,86.55
2018-12-12T00:17:38.669Z,86.00
2018-12-12T00:19:08.740Z,86.78
2018-12-12T00:20:38.853Z,86.91
2018-12-12T00:22:08.815Z,86.94
2018-12-12T00:23:38.755Z,85.97
2018-12-12T00:25:08.898Z,87.07
2018-12-12T00:26:38.844Z,86.57
2018-12-12T00:28:08.782Z,86.10
2018-12-12T00:29:38.714Z,86.69
2018-12-12T00:31:08.736Z,85.26
2018-12-12T00:32:38.939Z,85.95
2018-12-12T00:34:08.907Z,85.80
2018-12-12T00:35:38.897Z,86.48
2018-12-12T00:37:08.824Z,86.28
2018-12-12T00:38:38.779Z,87.58
2018-12-12T00:40:08.758Z,86.24
2018-12-12T00:41:38.732Z,87.78
2018-12-12T00:43:08.981Z,86.29
2018-12-12T00:44:38.958Z,86.93
2018-12-12T00:46:09.034Z,86.71
2018-12-12T00:47:39.036Z,85.67
2018-12-12T00:49:09.307Z,86.29
2018-12-12T00:50:39.255Z,86.43
2018-12-12T00:52:09.235Z,86.41
2018-12-12T00:53:39.170Z,86.60
2018-12-12T00:55:09.239Z,85.72
2018-12-12T00:56:39.309Z,86.40
2018-12-12T00:58:09.409Z,86.25
2018-12-12T00:59:39.439Z,86.56
2018-12-12T01:01:09.558Z,86.63
2018-12-12T01:02:39.665Z,86.91
2018-12-12T01:04:09.707Z,87.19
2018-12-12T01:05:39.659Z,86.73
2018-12-12T01:07:09.600Z,85.82
2018-12-12T01:08:39.531Z,86.35
2018-12-12T01:10:09.490Z,87.07
2018-12-12T01:13:27.946Z,86.08
2018-12-12T01:14:58.035Z,86.98
2018-12-12T01:16:28.030Z,87.08
2018-12-12T01:17:57.987Z,86.82
2018-12-12T01:19:28.097Z,86.05
2018-12-12T01:20:58.178Z,85.90
2018-12-12T01:22:28.129Z,85.71
2018-12-12T01:23:58.080Z,87.01
2018-12-12T01:25:28.042Z,85.93
2018-12-12T01:26:57.987Z,86.98
2018-12-12T01:28:27.923Z,86.00
2018-12-12T01:29:57.860Z,86.73
2018-12-12T01:31:27.947Z,85.48
2018-12-12T01:32:57.931Z,86.30
2018-12-12T01:34:28.186Z,86.38
2018-12-12T01:35:58.161Z,86.88
2018-12-12T01:37:28.326Z,86.54
2018-12-12T01:38:58.278Z,86.63
2018-12-12T01:40:28.343Z,86.23
2018-12-12T01:41:58.547Z,85.95
2018-12-12T01:43:28.563Z,85.82
2018-12-12T01:44:58.518Z,86.54
2018-12-12T01:46:28.597Z,86.18
2018-12-12T01:47:58.573Z,85.09
2018-12-12T01:49:28.559Z,85.24
2018-12-12T01:50:58.520Z,85.45
2018-12-12T01:52:28.562Z,84.99
2018-12-12T01:53:58.511Z,86.22
2018-12-12T01:55:28.707Z,85.70
2018-12-12T01:56:58.738Z,86.20
2018-12-12T01:58:28.735Z,86.18
2018-12-12T01:59:58.656Z,86.39
2018-12-12T02:01:28.615Z,87.24
2018-12-12T02:02:58.568Z,86.80
2018-12-12T02:04:28.517Z,86.20
2018-12-12T02:05:58.474Z,86.72
2018-12-12T02:07:28.443Z,85.56
2018-12-12T02:08:58.527Z,86.55
2018-12-12T02:10:28.512Z,86.76
2018-12-12T02:11:58.786Z,86.62
2018-12-12T02:13:35.601Z,87.23
2018-12-12T02:15:05.912Z,85.86
2018-12-12T02:16:35.888Z,86.10
2018-12-12T02:18:05.962Z,85.42
2018-12-12T02:19:36.043Z,85.43
2018-12-12T02:21:06.159Z,86.02
2018-12-12T02:22:36.268Z,86.86
2018-12-12T02:24:06.387Z,87.44
2018-12-12T02:25:36.495Z,86.35
2018-12-12T02:27:06.483Z,86.99
2018-12-12T02:28:36.576Z,87.12
2018-12-12T02:30:07.169Z,86.94
2018-12-12T02:31:44.732Z,86.95
2018-12-12T02:33:14.703Z,86.42
2018-12-12T02:34:44.763Z,86.58
2018-12-12T02:36:14.863Z,86.39
2018-12-12T02:37:44.879Z,86.64
2018-12-12T02:39:14.876Z,87.00
2018-12-12T02:40:44.812Z,86.28
2018-12-12T02:42:14.884Z,85.60
2018-12-12T02:43:44.860Z,86.43
2018-12-12T02:45:14.969Z,86.62
2018-12-12T02:46:44.903Z,86.22
2018-12-12T02:48:15.312Z,86.77
2018-12-12T02:49:45.263Z,85.96
2018-12-12T02:51:15.343Z,85.91
2018-12-12T02:52:45.475Z,86.10
2018-12-12T02:54:15.443Z,86.69
2018-12-12T02:55:45.410Z,85.63
2018-12-12T02:57:15.377Z,86.73
2018-12-12T02:58:45.455Z,85.50
2018-12-12T03:00:15.509Z,86.64
2018-12-12T03:01:45.479Z,87.39
2018-12-12T03:03:15.533Z,87.77
2018-12-12T03:04:45.482Z,87.57
2018-12-12T03:06:15.643Z,87.68
2018-12-12T03:07:45.625Z,88.13
2018-12-12T03:09:15.734Z,87.94
2018-12-12T03:10:45.699Z,87.72
2018-12-12T03:12:15.651Z,87.31
2018-12-12T03:13:45.844Z,86.55
2018-12-12T03:15:15.930Z,87.16
2018-12-12T03:16:45.889Z,86.20
2018-12-12T03:18:15.844Z,87.49
2018-12-12T03:19:45.793Z,87.25
2018-12-12T03:21:15.849Z,86.43
2018-12-12T03:22:45.783Z,86.50
2018-12-12T03:24:15.708Z,86.86
2018-12-12T03:25:45.640Z,87.21
2018-12-12T03:27:15.802Z,87.13
2018-12-12T03:28:45.861Z,87.65
2018-12-12T03:30:15.778Z,87.63
2018-12-12T03:31:45.902Z,87.06
2018-12-12T03:33:15.916Z,87.47
2018-12-12T03:34:45.906Z,87.21
2018-12-12T03:36:15.902Z,87.30
2018-12-12T03:37:45.816Z,86.37
2018-12-12T03:39:15.790Z,87.67
2018-12-12T03:40:46.048Z,87.11
2018-12-12T03:42:15.923Z,87.00
2018-12-12T03:43:45.806Z,86.77
2018-12-12T03:45:15.709Z,87.01
2018-12-12T03:46:45.602Z,86.49
2018-12-12T03:48:15.568Z,86.93
2018-12-12T03:49:45.473Z,87.23
2018-12-12T03:51:15.356Z,87.08
2018-12-12T03:52:45.248Z,86.75
2018-12-12T03:54:15.222Z,86.84
2018-12-12T03:55:45.112Z,87.85
2018-12-12T03:57:15.100Z,87.01
2018-12-12T03:58:45.133Z,88.33
2018-12-12T04:00:15.277Z,88.44
2018-12-12T04:01:45.331Z,88.63
2018-12-12T04:03:15.207Z,87.08
2018-12-12T04:04:45.080Z,87.85
2018-12-12T04:06:14.970Z,87.03
2018-12-12T04:07:44.842Z,87.15
2018-12-12T04:09:14.712Z,87.01
2018-12-12T04:10:44.602Z,87.13
2018-12-12T04:12:14.478Z,86.51
2018-12-12T04:13:44.346Z,86.23
2018-12-12T04:15:14.488Z,87.03
2018-12-12T04:16:44.387Z,85.59
2018-12-12T04:18:14.265Z,86.59
2018-12-12T04:19:44.248Z,87.05
2018-12-12T04:21:14.258Z,86.47
2018-12-12T04:22:44.238Z,86.18
2018-12-12T04:24:14.211Z,86.64
2018-12-12T04:25:44.086Z,86.01
2018-12-12T04:27:13.951Z,86.83
2018-12-12T04:28:43.925Z,86.63
2018-12-12T04:30:13.862Z,86.63
2018-12-12T04:31:43.895Z,86.91
2018-12-12T04:33:13.767Z,86.44
2018-12-12T04:34:43.691Z,86.47
2018-12-12T04:36:13.683Z,86.65
2018-12-12T04:37:43.569Z,86.05
2018-12-12T04:39:13.448Z,86.63
2018-12-12T04:40:43.335Z,85.89
2018-12-12T04:44:38.293Z,85.90
2018-12-12T04:46:08.182Z,86.47
2018-12-12T04:47:38.074Z,86.20
2018-12-12T04:49:07.983Z,86.24
2018-12-12T04:50:38.164Z,85.56
2018-12-12T04:52:08.062Z,86.29
2018-12-12T04:53:37.948Z,86.11
2018-12-12T04:55:07.837Z,86.03
2018-12-12T04:56:37.783Z,85.91
2018-12-12T04:58:07.652Z,86.83
2018-12-12T04:59:37.673Z,86.08
2018-12-12T05:01:07.562Z,85.54
2018-12-12T05:02:37.692Z,86.01
2018-12-12T05:04:07.667Z,86.49
2018-12-12T05:05:37.574Z,85.36
2018-12-12T05:07:07.604Z,87.23
2018-12-12T05:08:37.577Z,86.76
2018-12-12T05:10:08.211Z,87.43
2018-12-12T05:11:38.083Z,87.96
2018-12-12T05:13:08.194Z,88.05
2018-12-12T05:14:38.324Z,87.57
2018-12-12T05:16:08.195Z,87.59
2018-12-12T05:17:38.123Z,87.14
2018-12-12T05:19:07.999Z,87.18
2018-12-12T05:20:37.910Z,87.39
2018-12-12T05:22:07.947Z,86.45
2018-12-12T05:23:37.812Z,86.86
2018-12-12T05:25:07.879Z,86.37
2018-12-12T05:26:37.770Z,86.03
2018-12-12T05:28:07.662Z,86.80
2018-12-12T05:29:37.563Z,87.71
2018-12-12T05:31:07.570Z,86.85
2018-12-12T05:32:37.535Z,86.94
2018-12-12T05:34:07.571Z,87.69
2018-12-12T05:35:37.534Z,87.50
2018-12-12T05:37:07.417Z,87.79
2018-12-12T05:38:37.544Z,87.16
2018-12-12T05:40:08.032Z,88.11
2018-12-12T05:41:37.911Z,87.20
2018-12-12T05:43:07.823Z,88.09
2018-12-12T05:44:37.852Z,88.36
2018-12-12T05:46:07.730Z,87.45
2018-12-12T05:47:37.639Z,87.54
2018-12-12T05:49:07.546Z,87.24
2018-12-12T05:50:44.090Z,87.37
2018-12-12T05:52:14.118Z,86.41
2018-12-12T05:53:44.034Z,86.84
2018-12-12T05:55:14.061Z,86.07
2018-12-12T05:56:44.042Z,87.28
2018-12-12T05:58:13.984Z,86.81
2018-12-12T05:59:43.911Z,86.35
2018-12-12T06:01:13.819Z,86.78
2018-12-12T06:02:43.784Z,86.49
2018-12-12T06:04:13.678Z,86.58
2018-12-12T06:05:43.770Z,86.47
2018-12-12T06:07:13.687Z,87.49
2018-12-12T06:08:43.723Z,86.63
2018-12-12T06:10:13.748Z,86.55
2018-12-12T06:11:43.652Z,87.28
2018-12-12T06:13:13.610Z,86.87
2018-12-12T06:14:43.519Z,86.25
2018-12-12T06:16:13.593Z,87.07
2018-12-12T06:17:43.669Z,86.49
2018-12-12T06:19:14.080Z,86.35
2018-12-12T06:20:54.824Z,87.19
2018-12-12T06:22:25.092Z,86.23
2018-12-12T06:23:55.312Z,86.82
2018-12-12T06:25:25.221Z,86.54
2018-12-12T06:26:55.118Z,87.36
2018-12-12T06:28:25.031Z,86.22
2018-12-12T06:29:54.971Z,86.29
2018-12-12T06:31:30.767Z,87.26
2018-12-12T06:33:00.686Z,86.24
2018-12-12T06:34:30.635Z,86.23
2018-12-12T06:36:00.547Z,86.10
2018-12-12T06:37:30.587Z,86.72
2018-12-12T06:39:00.521Z,86.76
2018-12-12T06:40:30.539Z,86.23
2018-12-12T06:42:00.479Z,86.28
2018-12-12T06:43:30.428Z,85.77
2018-12-12T06:45:00.572Z,87.13
2018-12-12T06:46:30.612Z,86.40
2018-12-12T06:48:00.507Z,85.52
2018-12-12T06:49:30.427Z,86.68
2018-12-12T06:51:00.360Z,86.66
2018-12-12T06:52:30.261Z,86.86
2018-12-12T06:54:00.166Z,85.97
2018-12-12T06:55:30.439Z,86.62
2018-12-12T06:57:00.350Z,86.47
2018-12-12T06:58:30.346Z,86.44
2018-12-12T07:00:00.251Z,85.96
2018-12-12T07:01:30.307Z,85.21
2018-12-12T07:03:00.212Z,86.33
2018-12-12T07:04:30.263Z,86.18
2018-12-12T07:06:00.195Z,86.02
2018-12-12T07:07:30.305Z,84.73
2018-12-12T07:09:17.139Z,84.34
2018-12-12T07:10:47.210Z,84.95
2018-12-12T07:12:17.121Z,85.89
2018-12-12T07:13:47.031Z,86.52
2018-12-12T07:15:16.939Z,86.07
2018-12-12T07:16:46.858Z,85.81
2018-12-12T07:18:16.783Z,86.12
2018-12-12T07:19:46.687Z,85.94
2018-12-12T07:21:16.883Z,85.90
2018-12-12T07:22:46.856Z,85.47
2018-12-12T07:24:16.835Z,85.97
2018-12-12T07:25:46.794Z,85.42
2018-12-12T07:27:16.776Z,85.48
2018-12-12T07:28:46.843Z,85.85
2018-12-12T07:30:17.143Z,86.39
2018-12-12T07:31:47.176Z,86.23
2018-12-12T07:33:17.260Z,86.17
2018-12-12T07:34:47.289Z,84.76
2018-12-12T07:36:18.193Z,85.17
2018-12-12T07:37:48.473Z,84.73
2018-12-12T07:39:18.720Z,85.02
2018-12-12T07:40:48.915Z,85.79
2018-12-12T07:42:19.135Z,86.01
2018-12-12T07:43:49.251Z,85.26
2018-12-12T07:45:19.256Z,85.79
2018-12-12T07:46:49.695Z,84.41
2018-12-12T07:49:03.853Z,84.59
2018-12-12T07:50:37.735Z,84.74
2018-12-12T07:52:07.751Z,84.97
2018-12-12T07:53:37.935Z,85.28
2018-12-12T07:55:08.156Z,85.05
2018-12-12T07:56:38.426Z,85.11
2018-12-12T07:58:08.711Z,84.14
2018-12-12T07:59:38.856Z,84.77
2018-12-12T08:01:08.843Z,83.94
2018-12-12T08:02:38.894Z,84.35
2018-12-12T08:04:08.846Z,84.54
2018-12-12T08:05:38.901Z,84.58
2018-12-12T08:07:09.118Z,84.47
2018-12-12T08:08:39.300Z,85.21
2018-12-12T08:10:09.376Z,84.32
2018-12-12T08:11:39.623Z,84.86
2018-12-12T08:13:09.880Z,84.98
2018-12-12T08:14:40.161Z,84.42
2018-12-12T08:16:10.413Z,84.47
2018-12-12T08:17:40.460Z,83.53
2018-12-12T08:19:10.457Z,84.91
2018-12-12T08:20:40.675Z,84.34
2018-12-12T08:22:10.772Z,83.58
2018-12-12T08:23:40.796Z,82.65
2018-12-12T08:25:10.926Z,82.62
2018-12-12T08:26:51.895Z,83.05
2018-12-12T08:28:21.985Z,82.02
2018-12-12T08:29:52.142Z,82.31
2018-12-12T08:31:22.093Z,81.68
2018-12-12T08:32:52.212Z,82.14
2018-12-12T08:34:22.202Z,81.98
2018-12-12T08:35:52.346Z,81.96
2018-12-12T08:37:22.326Z,82.10
2018-12-12T08:38:52.272Z,81.78
2018-12-12T08:40:22.464Z,81.34
2018-12-12T08:41:52.636Z,81.95
2018-12-12T08:43:22.604Z,81.24
2018-12-12T08:44:52.608Z,81.17
2018-12-12T08:46:22.663Z,81.21
2018-12-12T08:47:53.670Z,81.82
2018-12-12T08:49:23.668Z,81.76
2018-12-12T08:50:53.628Z,81.12
2018-12-12T08:52:23.594Z,81.82
2018-12-12T08:53:53.621Z,80.55
2018-12-12T08:55:23.878Z,80.17
2018-12-12T08:56:54.223Z,81.98
2018-12-12T08:58:24.230Z,81.19
2018-12-12T08:59:54.206Z,80.16
2018-12-12T09:01:31.022Z,81.20
2018-12-12T09:03:00.983Z,81.27
2018-12-12T09:04:31.221Z,80.65
2018-12-12T09:06:01.167Z,80.71
2018-12-12T09:07:31.236Z,81.14
2018-12-12T09:09:01.368Z,81.41
2018-12-12T09:10:31.355Z,80.03
2018-12-12T09:12:01.301Z,80.53
2018-12-12T09:13:31.405Z,80.79
2018-12-12T09:15:01.704Z,79.48
2018-12-12T09:16:31.656Z,79.67
2018-12-12T09:18:02.553Z,80.45
2018-12-12T09:19:33.279Z,80.18
2018-12-12T09:21:03.981Z,79.32
2018-12-12T09:22:33.949Z,79.50
2018-12-12T09:24:04.038Z,78.70
2018-12-12T09:25:34.044Z,78.87
2018-12-12T09:27:04.206Z,79.34
2018-12-12T09:28:34.139Z,80.24
2018-12-12T09:30:05.141Z,80.17
2018-12-12T09:31:35.122Z,79.79
2018-12-12T09:33:05.023Z,79.19
2018-12-12T09:34:37.340Z,79.01
2018-12-12T09:36:07.206Z,79.90
2018-12-12T09:37:37.078Z,79.06
2018-12-12T09:39:07.685Z,79.63
2018-12-12T09:40:38.071Z,79.39
2018-12-12T09:42:07.947Z,78.97
2018-12-12T09:43:37.840Z,78.02
2018-12-12T09:45:07.743Z,79.38
2018-12-12T09:46:37.730Z,78.09
2018-12-12T09:48:07.605Z,78.79
2018-12-12T09:49:37.677Z,78.54
2018-12-12T09:51:07.657Z,78.44
2018-12-12T09:52:37.650Z,79.18
2018-12-12T09:54:09.422Z,79.48
2018-12-12T09:55:40.376Z,78.36
2018-12-12T09:57:10.532Z,78.78
2018-12-12T09:58:40.483Z,78.90
2018-12-12T10:00:10.607Z,79.05
2018-12-12T10:01:40.551Z,79.05
2018-12-12T10:03:10.502Z,78.81
2018-12-12T10:04:40.433Z,78.93
2018-12-12T10:06:10.354Z,79.72
2018-12-12T10:07:40.308Z,79.92
2018-12-12T10:09:10.234Z,78.68
2018-12-12T10:10:40.160Z,80.39
2018-12-12T10:12:10.167Z,78.60
2018-12-12T10:13:40.199Z,79.00
2018-12-12T10:15:31.218Z,79.15
2018-12-12T10:17:01.260Z,79.68
2018-12-12T10:18:31.296Z,80.28
2018-12-12T10:20:01.335Z,78.68
2018-12-12T10:21:31.248Z,78.37
2018-12-12T10:23:01.381Z,79.16
2018-12-12T10:24:31.348Z,78.54
2018-12-12T10:26:01.307Z,77.47
2018-12-12T10:27:31.270Z,77.20
2018-12-12T10:29:01.545Z,77.57
2018-12-12T10:30:31.487Z,77.37
2018-12-12T10:32:01.503Z,76.78
2018-12-12T10:33:37.426Z,75.04
2018-12-12T10:35:03.762Z,74.74
2018-12-12T10:36:33.743Z,74.56
2018-12-12T10:38:03.791Z,73.52
2018-12-12T10:39:33.721Z,74.08
2018-12-12T10:41:03.668Z,73.68
2018-12-12T10:42:33.716Z,73.36
2018-12-12T10:44:03.970Z,73.21
2018-12-12T10:45:33.912Z,72.56
2018-12-12T10:47:03.980Z,72.75
2018-12-12T10:48:34.087Z,72.77
2018-12-12T10:50:05.724Z,73.90
2018-12-12T10:51:35.859Z,73.64
2018-12-12T10:53:05.904Z,74.23
2018-12-12T10:54:44.667Z,74.97
2018-12-12T10:56:14.916Z,74.23
2018-12-12T10:57:44.914Z,75.23
2018-12-12T10:59:15.720Z,75.96
2018-12-12T11:00:55.034Z,76.17
2018-12-12T11:02:32.077Z,75.15
2018-12-12T11:04:02.092Z,75.12
2018-12-12T11:05:32.081Z,75.93
2018-12-12T11:07:02.136Z,75.74
2018-12-12T11:08:32.145Z,75.63
2018-12-12T11:10:02.084Z,75.80
2018-12-12T11:11:32.216Z,74.19
2018-12-12T11:13:04.189Z,75.15
2018-12-12T11:14:34.131Z,75.32
2018-12-12T11:16:05.200Z,75.53
2018-12-12T11:17:35.611Z,75.98
2018-12-12T11:19:05.743Z,76.28
2018-12-12T11:20:35.890Z,75.58
2018-12-12T11:22:06.062Z,75.76
2018-12-12T11:23:36.026Z,76.27
2018-12-12T11:25:09.350Z,75.20
2018-12-12T11:26:39.338Z,75.78
2018-12-12T11:28:09.317Z,75.62
2018-12-12T11:29:39.391Z,75.53
2018-12-12T11:31:10.013Z,77.29
2018-12-12T11:32:39.928Z,76.45
2018-12-12T11:34:09.950Z,74.62
2018-12-12T11:35:39.963Z,75.16
2018-12-12T11:37:09.907Z,73.74
2018-12-12T11:38:39.847Z,73.47
2018-12-12T11:40:09.923Z,73.14
2018-12-12T11:41:39.852Z,72.93
2018-12-12T11:43:09.919Z,72.74
2018-12-12T11:44:39.967Z,72.96
2018-12-12T11:46:09.973Z,73.18
2018-12-12T11:47:40.018Z,73.20
2018-12-12T11:49:09.958Z,72.54
2018-12-12T11:50:40.077Z,74.03
2018-12-12T11:53:47.457Z,73.23
2018-12-12T11:55:17.403Z,72.46
2018-12-12T11:56:47.348Z,73.29
2018-12-12T11:58:17.315Z,73.80
2018-12-12T11:59:47.376Z,72.78
2018-12-12T12:01:17.483Z,74.08
2018-12-12T12:02:58.031Z,72.96
2018-12-12T12:04:27.975Z,73.18
2018-12-12T12:05:57.935Z,71.97
2018-12-12T12:07:27.895Z,71.77
2018-12-12T12:08:57.870Z,71.31
2018-12-12T12:10:27.972Z,70.85
2018-12-12T12:11:57.972Z,72.60
2018-12-12T12:13:27.952Z,72.59
2018-12-12T12:14:57.896Z,72.95
2018-12-12T12:16:27.858Z,73.14
2018-12-12T12:17:57.764Z,71.54
2018-12-12T12:19:27.832Z,72.22
2018-12-12T12:20:58.033Z,72.96
2018-12-12T12:22:28.255Z,71.87
2018-12-12T12:23:58.361Z,72.08
2018-12-12T12:25:28.421Z,70.44
2018-12-12T12:26:58.471Z,70.61
2018-12-12T12:28:28.485Z,71.42
2018-12-12T12:29:58.693Z,72.11
2018-12-12T12:31:29.620Z,71.29
2018-12-12T12:32:59.940Z,70.85
2018-12-12T12:34:29.925Z,72.60
2018-12-12T12:36:00.360Z,71.82
2018-12-12T12:37:30.447Z,70.39
2018-12-12T12:39:00.610Z,70.54
2018-12-12T12:40:30.633Z,70.32
2018-12-12T12:42:00.677Z,69.30
2018-12-12T12:43:30.914Z,70.12
2018-12-12T12:45:00.865Z,69.01
2018-12-12T12:46:30.966Z,69.87
2018-12-12T12:48:00.972Z,70.26
2018-12-12T12:51:55.018Z,69.81
2018-12-12T12:53:25.152Z,69.74
2018-12-12T12:54:55.242Z,71.00
2018-12-12T12:56:25.374Z,70.84
2018-12-12T12:57:55.569Z,72.27
2018-12-12T12:59:25.469Z,71.54
2018-12-12T13:00:55.484Z,70.91
2018-12-12T13:02:25.651Z,70.75
2018-12-12T13:04:02.967Z,69.76
2018-12-12T13:05:32.842Z,70.22
2018-12-12T13:07:02.766Z,69.92
2018-12-12T13:08:32.718Z,70.85
2018-12-12T13:10:03.306Z,70.81
2018-12-12T13:11:33.474Z,70.16
2018-12-12T13:13:04.197Z,70.24
2018-12-12T13:14:34.233Z,70.60
2018-12-12T13:16:04.345Z,70.60
2018-12-12T13:17:34.349Z,69.11
2018-12-12T13:19:04.365Z,67.92
2018-12-12T13:20:35.076Z,69.44
2018-12-12T13:22:06.797Z,69.68
2018-12-12T13:23:42.672Z,70.99
2018-12-12T13:27:43.789Z,68.12
2018-12-12T13:29:18.550Z,69.50
2018-12-12T13:30:50.421Z,71.24
2018-12-12T13:32:21.623Z,70.79
2018-12-12T13:33:54.042Z,71.32
2018-12-12T13:35:27.144Z,71.20
2018-12-12T13:37:03.450Z,72.00
2018-12-12T13:38:40.935Z,71.96
2018-12-12T13:40:17.034Z,71.19
2018-12-12T13:41:49.564Z,71.15
2018-12-12T13:43:20.002Z,71.14
2018-12-12T13:44:52.018Z,70.18
2018-12-12T13:46:24.351Z,70.83
2018-12-12T13:47:56.181Z,69.29
2018-12-12T13:49:28.437Z,69.75
2018-12-12T13:51:00.219Z,70.56
2018-12-12T13:52:32.547Z,69.58
2018-12-12T13:54:03.524Z,68.50
2018-12-12T13:55:33.462Z,70.78
2018-12-12T13:57:03.774Z,70.95
2018-12-12T13:58:33.994Z,70.06
2018-12-12T14:00:04.694Z,71.25
2018-12-12T14:01:34.730Z,70.71
2018-12-12T14:03:04.805Z,70.10
2018-12-12T14:04:34.772Z,70.01
2018-12-12T14:06:04.717Z,70.40
2018-12-12T14:07:34.660Z,70.60
2018-12-12T14:09:06.032Z,70.66
2018-12-12T14:10:36.324Z,69.52
2018-12-12T14:12:06.316Z,70.33
2018-12-12T14:13:36.303Z,69.99
2018-12-12T14:15:06.536Z,70.76
2018-12-12T14:16:36.551Z,69.33
2018-12-12T14:18:06.531Z,70.55
2018-12-12T14:19:36.533Z,70.27
2018-12-12T14:21:06.588Z,70.29
2018-12-12T14:22:36.926Z,71.48
2018-12-12T14:24:06.912Z,70.79
2018-12-12T14:25:37.042Z,71.32
2018-12-12T14:27:07.312Z,71.39
2018-12-12T14:28:37.457Z,70.44
2018-12-12T14:30:08.452Z,70.49
2018-12-12T14:31:38.515Z,71.44
2018-12-12T14:33:08.552Z,70.96
2018-12-12T14:34:38.656Z,70.85
2018-12-12T14:36:09.043Z,73.07
2018-12-12T14:37:39.332Z,71.68
2018-12-12T14:39:18.145Z,70.77
2018-12-12T14:41:03.268Z,70.88
2018-12-12T14:42:33.318Z,71.36
2018-12-12T14:44:03.481Z,72.08
2018-12-12T14:45:34.477Z,71.65
2018-12-12T14:47:04.804Z,71.72
2018-12-12T14:48:35.090Z,72.62
2018-12-12T14:50:05.243Z,72.68
2018-12-12T14:51:35.235Z,72.56
2018-12-12T14:53:05.424Z,72.73
2018-12-12T14:54:50.999Z,73.25
2018-12-12T14:58:45.424Z,74.99
2018-12-12T15:00:15.654Z,74.57
2018-12-12T15:01:46.100Z,73.41
2018-12-12T15:03:16.047Z,75.24
2018-12-12T15:04:46.267Z,75.27
2018-12-12T15:06:17.259Z,74.77
2018-12-12T15:07:47.290Z,75.39
2018-12-12T15:09:17.453Z,75.68
2018-12-12T15:10:47.599Z,75.80
2018-12-12T15:12:17.712Z,75.64
2018-12-12T15:13:47.870Z,75.31
2018-12-12T15:15:18.288Z,76.25
2018-12-12T15:16:48.272Z,76.32
2018-12-12T15:18:18.419Z,76.67
2018-12-12T15:19:48.762Z,76.83
2018-12-12T15:21:18.726Z,76.85
2018-12-12T15:22:59.389Z,77.96
2018-12-12T15:24:29.522Z,77.88
2018-12-12T15:25:59.540Z,77.23
2018-12-12T15:27:29.588Z,78.04
2018-12-12T15:29:00.531Z,79.23
2018-12-12T15:31:08.711Z,78.00
2018-12-12T15:32:38.831Z,77.87
2018-12-12T15:34:08.801Z,78.49
2018-12-12T15:35:39.889Z,78.14
2018-12-12T15:37:09.837Z,78.48
2018-12-12T15:38:39.763Z,78.32
2018-12-12T15:40:11.503Z,78.22
2018-12-12T15:42:10.875Z,79.32
2018-12-12T15:43:40.941Z,79.16
2018-12-12T15:47:35.354Z,79.12
2018-12-12T15:49:05.432Z,78.73
2018-12-12T15:50:35.345Z,79.40
2018-12-12T15:52:05.712Z,79.14
2018-12-12T15:53:35.760Z,78.52
2018-12-12T15:55:06.108Z,78.51
2018-12-12T15:56:38.217Z,79.36
2018-12-12T15:58:08.149Z,79.60
2018-12-12T15:59:38.424Z,79.12
2018-12-12T16:01:08.310Z,79.24
2018-12-12T16:02:38.199Z,79.58
2018-12-12T16:04:08.155Z,78.67
2018-12-12T16:05:38.198Z,79.58
2018-12-12T16:07:08.256Z,78.83
2018-12-12T16:08:38.155Z,80.17
2018-12-12T16:10:08.392Z,79.30
2018-12-12T16:11:38.418Z,79.15
2018-12-12T16:13:08.640Z,80.24
2018-12-12T16:14:38.679Z,79.47
2018-12-12T16:16:09.000Z,80.10
2018-12-12T16:17:38.991Z,78.86
2018-12-12T16:19:09.011Z,79.64
2018-12-12T16:20:39.014Z,78.58
2018-12-12T16:22:09.013Z,79.43
2018-12-12T16:23:39.029Z,79.44
2018-12-12T16:25:09.081Z,78.67
2018-12-12T16:26:38.989Z,80.04
2018-12-12T16:28:08.871Z,78.94
2018-12-12T16:29:38.833Z,79.09
2018-12-12T16:31:09.055Z,79.86
2018-12-12T16:32:39.102Z,79.80
2018-12-12T16:34:09.259Z,79.37
2018-12-12T16:35:39.202Z,80.08
2018-12-12T16:37:09.116Z,79.72
2018-12-12T16:38:39.013Z,80.80
2018-12-12T16:40:46.975Z,80.18
2018-12-12T16:42:29.827Z,79.85
2018-12-12T16:43:59.718Z,80.15
2018-12-12T16:45:29.663Z,81.40
2018-12-12T16:46:59.675Z,81.35
2018-12-12T16:48:29.595Z,81.08
2018-12-12T16:49:59.932Z,81.91
2018-12-12T16:51:29.847Z,82.71
2018-12-12T16:52:59.951Z,82.46
2018-12-12T16:54:30.015Z,82.01
2018-12-12T16:56:00.104Z,82.68
2018-12-12T16:57:30.062Z,82.64
2018-12-12T16:58:59.951Z,81.82
2018-12-12T17:00:29.898Z,81.79
2018-12-12T17:02:00.058Z,81.44
2018-12-12T17:03:29.988Z,81.34
2018-12-12T17:05:02.373Z,82.27
2018-12-12T17:06:31.859Z,82.57
2018-12-12T17:08:01.760Z,82.94
2018-12-12T17:09:31.749Z,82.01
2018-12-12T17:11:01.709Z,81.43
2018-12-12T17:12:31.608Z,81.31
2018-12-12T17:14:01.521Z,80.54
2018-12-12T17:15:31.832Z,81.68
2018-12-12T17:17:39.852Z,81.81
2018-12-12T17:19:09.746Z,81.02
2018-12-12T17:20:39.808Z,81.67
2018-12-12T17:22:09.764Z,81.65
2018-12-12T17:23:39.843Z,81.25
2018-12-12T17:25:09.795Z,81.33
2018-12-12T17:26:39.702Z,80.34
2018-12-12T17:28:09.613Z,80.33
2018-12-12T17:29:39.671Z,81.28
2018-12-12T17:31:09.638Z,80.50
2018-12-12T17:32:39.527Z,80.34
2018-12-12T17:34:09.425Z,81.38
2018-12-12T17:35:39.413Z,80.50
2018-12-12T17:37:16.112Z,80.35
2018-12-12T17:38:46.112Z,81.04
2018-12-12T17:40:16.236Z,80.93
2018-12-12T17:41:46.147Z,79.97
2018-12-12T17:43:16.159Z,81.26
2018-12-12T17:44:46.195Z,81.54
2018-12-12T17:46:16.143Z,81.63
2018-12-12T17:47:46.019Z,80.34
2018-12-12T17:49:16.019Z,81.19
2018-12-12T17:50:46.334Z,80.75
2018-12-12T17:52:16.278Z,81.46
2018-12-12T17:53:46.164Z,81.37
2018-12-12T17:55:16.130Z,80.67
2018-12-12T17:56:46.011Z,80.65
2018-12-12T17:58:16.115Z,81.34
2018-12-12T17:59:46.130Z,81.63
2018-12-12T18:01:16.317Z,80.89
2018-12-12T18:02:46.187Z,81.55
2018-12-12T18:04:16.236Z,80.47
2018-12-12T18:05:46.230Z,80.38
2018-12-12T18:07:16.124Z,80.18
2018-12-12T18:08:49.530Z,80.37
2018-12-12T18:10:19.678Z,81.40
2018-12-12T18:11:49.898Z,81.16
2018-12-12T18:13:19.955Z,80.42
2018-12-12T18:14:49.959Z,81.01
2018-12-12T18:16:20.016Z,81.46
2018-12-12T18:17:50.001Z,81.42
2018-12-12T18:19:20.099Z,80.78
2018-12-12T18:20:50.043Z,81.50
2018-12-12T18:22:19.944Z,80.83
2018-12-12T18:23:50.010Z,81.56
2018-12-12T18:25:19.927Z,80.73
2018-12-12T18:26:49.935Z,81.47
2018-12-12T18:28:21.747Z,81.42
2018-12-12T18:29:51.626Z,81.03
2018-12-12T18:31:21.538Z,82.21
2018-12-12T18:32:51.613Z,81.39
2018-12-12T18:34:21.531Z,80.99
2018-12-12T18:35:51.496Z,81.41
2018-12-12T18:37:21.694Z,81.65
2018-12-12T18:38:51.693Z,81.80
2018-12-12T18:40:21.791Z,81.22
2018-12-12T18:41:51.663Z,81.90
2018-12-12T18:43:21.712Z,81.83
2018-12-12T18:44:51.726Z,83.10
2018-12-12T18:46:21.676Z,82.19
2018-12-12T18:47:51.561Z,83.21
2018-12-12T18:49:21.631Z,82.01
2018-12-12T18:50:51.576Z,81.63
2018-12-12T18:52:21.463Z,81.98
2018-12-12T18:53:51.499Z,82.03
2018-12-12T18:55:21.473Z,82.68
2018-12-12T18:56:51.414Z,82.61
2018-12-12T18:58:21.323Z,82.06
2018-12-12T18:59:51.368Z,83.10
2018-12-12T19:01:21.314Z,82.46
2018-12-12T19:02:51.226Z,82.10
2018-12-12T19:04:21.130Z,82.69
2018-12-12T19:05:51.270Z,83.73
2018-12-12T19:07:21.167Z,83.38
2018-12-12T19:08:51.644Z,82.68
2018-12-12T19:10:21.875Z,84.06
2018-12-12T19:11:51.807Z,83.03
2018-12-12T19:13:21.759Z,84.25
2018-12-12T19:14:57.415Z,84.19
2018-12-12T19:16:27.593Z,84.16
2018-12-12T19:17:57.490Z,84.62
2018-12-12T19:19:27.421Z,83.79
2018-12-12T19:21:00.265Z,84.62
2018-12-12T19:22:29.382Z,83.73
2018-12-12T19:23:59.435Z,84.81
2018-12-12T19:25:29.433Z,84.44
2018-12-12T19:26:59.363Z,84.07
2018-12-12T19:28:29.288Z,83.81
2018-12-12T19:29:59.187Z,83.25
2018-12-12T19:31:29.221Z,82.94
2018-12-12T19:32:59.182Z,83.31
2018-12-12T19:34:29.114Z,83.13
2018-12-12T19:35:59.127Z,84.23
2018-12-12T19:37:29.121Z,83.12
2018-12-12T19:38:59.228Z,84.32
2018-12-12T19:40:29.203Z,83.30
2018-12-12T19:41:59.250Z,83.30
2018-12-12T19:43:29.279Z,83.64